sensor_id;sensor_type;location;lat;lon;timestamp;temperature;humidity
74822;DHT22;63353;48.702;8.884;2023-09-19T00:01:40;14.60;99.90
74822;DHT22;63353;48.702;8.884;2023-09-19T00:04:09;14.60;99.90
74822;DHT22;63353;48.702;8.884;2023-09-19T00:06:38;14.60;99.90
74822;DHT22;63353;48.702;8.884;2023-09-19T00:09:04;14.60;99.90
74822;DHT22;63353;48.702;8.884;2023-09-19T00:11:30;14.50;99.90
74822;DHT22;63353;48.702;8.884;2023-09-19T00:13:57;14.60;99.90
74822;DHT22;63353;48.702;8.884;2023-09-19T00:16:25;14.60;99.90
74822;DHT22;63353;48.702;8.884;2023-09-19T00:18:51;14.70;99.90
74822;DHT22;63353;48.702;8.884;2023-09-19T00:21:18;14.60;99.90
74822;DHT22;63353;48.702;8.884;2023-09-19T00:23:44;14.70;99.90
74822;DHT22;63353;48.702;8.884;2023-09-19T00:26:10;14.90;99.90
74822;DHT22;63353;48.702;8.884;2023-09-19T00:28:36;14.80;99.90
74822;DHT22;63353;48.702;8.884;2023-09-19T00:31:01;14.80;99.90
74822;DHT22;63353;48.702;8.884;2023-09-19T00:33:28;14.80;99.90
74822;DHT22;63353;48.702;8.884;2023-09-19T00:35:57;14.80;99.90
74822;DHT22;63353;48.702;8.884;2023-09-19T00:38:23;14.70;99.90
74822;DHT22;63353;48.702;8.884;2023-09-19T00:40:53;14.70;99.90
74822;DHT22;63353;48.702;8.884;2023-09-19T00:43:19;14.70;99.90
74822;DHT22;63353;48.702;8.884;2023-09-19T00:45:47;14.70;99.90
74822;DHT22;63353;48.702;8.884;2023-09-19T00:48:14;14.60;99.90
74822;DHT22;63353;48.702;8.884;2023-09-19T00:50:42;14.60;99.90
74822;DHT22;63353;48.702;8.884;2023-09-19T00:53:09;14.50;99.90
74822;DHT22;63353;48.702;8.884;2023-09-19T00:55:38;14.50;99.90
74822;DHT22;63353;48.702;8.884;2023-09-19T00:58:07;14.50;99.90
74822;DHT22;63353;48.702;8.884;2023-09-19T01:00:33;14.60;99.90
74822;DHT22;63353;48.702;8.884;2023-09-19T01:03:02;14.80;99.90
74822;DHT22;63353;48.702;8.884;2023-09-19T01:05:28;14.80;99.90
74822;DHT22;63353;48.702;8.884;2023-09-19T01:07:55;14.70;99.90
74822;DHT22;63353;48.702;8.884;2023-09-19T01:10:21;14.70;99.90
74822;DHT22;63353;48.702;8.884;2023-09-19T01:20:50;14.80;99.90
74822;DHT22;63353;48.702;8.884;2023-09-19T01:23:29;14.70;99.90
74822;DHT22;63353;48.702;8.884;2023-09-19T01:31:40;14.70;99.90
74822;DHT22;63353;48.702;8.884;2023-09-19T01:34:08;14.70;99.90
74822;DHT22;63353;48.702;8.884;2023-09-19T01:36:38;14.60;99.90
74822;DHT22;63353;48.702;8.884;2023-09-19T01:39:07;14.70;99.90
74822;DHT22;63353;48.702;8.884;2023-09-19T01:42:13;14.50;99.90
74822;DHT22;63353;48.702;8.884;2023-09-19T01:47:41;14.50;99.90
74822;DHT22;63353;48.702;8.884;2023-09-19T01:50:17;14.40;99.90
74822;DHT22;63353;48.702;8.884;2023-09-19T01:52:51;14.30;99.90
74822;DHT22;63353;48.702;8.884;2023-09-19T01:55:20;14.20;99.90
74822;DHT22;63353;48.702;8.884;2023-09-19T01:58:37;14.20;99.90
74822;DHT22;63353;48.702;8.884;2023-09-19T02:01:01;14.30;99.90
74822;DHT22;63353;48.702;8.884;2023-09-19T02:03:29;14.30;99.90
74822;DHT22;63353;48.702;8.884;2023-09-19T02:05:56;14.30;99.90
74822;DHT22;63353;48.702;8.884;2023-09-19T02:08:22;14.20;99.90
74822;DHT22;63353;48.702;8.884;2023-09-19T02:10:51;14.20;99.90
74822;DHT22;63353;48.702;8.884;2023-09-19T02:13:22;14.10;99.90
74822;DHT22;63353;48.702;8.884;2023-09-19T02:15:51;14.00;99.90
74822;DHT22;63353;48.702;8.884;2023-09-19T02:18:17;14.00;99.90
74822;DHT22;63353;48.702;8.884;2023-09-19T02:20:43;14.00;99.90
74822;DHT22;63353;48.702;8.884;2023-09-19T02:23:10;13.90;99.90
74822;DHT22;63353;48.702;8.884;2023-09-19T02:25:36;14.00;99.90
74822;DHT22;63353;48.702;8.884;2023-09-19T02:28:03;14.00;99.90
74822;DHT22;63353;48.702;8.884;2023-09-19T02:30:29;14.10;99.90
74822;DHT22;63353;48.702;8.884;2023-09-19T02:32:55;14.00;99.90
74822;DHT22;63353;48.702;8.884;2023-09-19T02:35:21;14.10;99.90
74822;DHT22;63353;48.702;8.884;2023-09-19T02:37:47;14.00;99.90
74822;DHT22;63353;48.702;8.884;2023-09-19T02:40:13;13.90;99.90
74822;DHT22;63353;48.702;8.884;2023-09-19T02:42:49;13.90;99.90
74822;DHT22;63353;48.702;8.884;2023-09-19T02:45:18;14.00;99.90
74822;DHT22;63353;48.702;8.884;2023-09-19T02:47:44;14.00;99.90
74822;DHT22;63353;48.702;8.884;2023-09-19T02:50:11;14.00;99.90
74822;DHT22;63353;48.702;8.884;2023-09-19T02:52:37;14.10;99.90
74822;DHT22;63353;48.702;8.884;2023-09-19T02:55:03;14.10;99.90
74822;DHT22;63353;48.702;8.884;2023-09-19T02:57:31;14.10;99.90
74822;DHT22;63353;48.702;8.884;2023-09-19T02:59:59;14.10;99.90
74822;DHT22;63353;48.702;8.884;2023-09-19T03:02:26;14.10;99.90
74822;DHT22;63353;48.702;8.884;2023-09-19T03:04:53;14.10;99.90
74822;DHT22;63353;48.702;8.884;2023-09-19T03:07:19;14.00;99.90
74822;DHT22;63353;48.702;8.884;2023-09-19T03:09:45;14.10;99.90
74822;DHT22;63353;48.702;8.884;2023-09-19T03:12:11;14.20;99.90
74822;DHT22;63353;48.702;8.884;2023-09-19T03:14:37;14.10;99.90
74822;DHT22;63353;48.702;8.884;2023-09-19T03:17:02;14.20;99.90
74822;DHT22;63353;48.702;8.884;2023-09-19T03:19:31;14.10;99.90
74822;DHT22;63353;48.702;8.884;2023-09-19T03:21:59;14.10;99.90
74822;DHT22;63353;48.702;8.884;2023-09-19T03:24:25;14.10;99.90
74822;DHT22;63353;48.702;8.884;2023-09-19T03:26:51;14.10;99.90
74822;DHT22;63353;48.702;8.884;2023-09-19T03:29:17;14.10;99.90
74822;DHT22;63353;48.702;8.884;2023-09-19T03:31:43;14.10;99.90
74822;DHT22;63353;48.702;8.884;2023-09-19T03:34:09;14.20;99.90
74822;DHT22;63353;48.702;8.884;2023-09-19T03:36:35;14.10;99.90
74822;DHT22;63353;48.702;8.884;2023-09-19T03:39:02;14.10;99.90
74822;DHT22;63353;48.702;8.884;2023-09-19T03:41:31;14.10;99.90
74822;DHT22;63353;48.702;8.884;2023-09-19T03:43:57;14.10;99.90
74822;DHT22;63353;48.702;8.884;2023-09-19T03:46:23;14.10;99.90
74822;DHT22;63353;48.702;8.884;2023-09-19T03:48:48;14.10;99.90
74822;DHT22;63353;48.702;8.884;2023-09-19T03:51:14;14.00;99.90
74822;DHT22;63353;48.702;8.884;2023-09-19T03:53:39;14.00;99.90
74822;DHT22;63353;48.702;8.884;2023-09-19T03:56:05;14.00;99.90
74822;DHT22;63353;48.702;8.884;2023-09-19T03:58:31;14.00;99.90
74822;DHT22;63353;48.702;8.884;2023-09-19T04:00:57;14.10;99.90
74822;DHT22;63353;48.702;8.884;2023-09-19T04:03:24;14.10;99.90
74822;DHT22;63353;48.702;8.884;2023-09-19T04:05:54;14.30;99.90
74822;DHT22;63353;48.702;8.884;2023-09-19T04:08:19;14.40;99.90
74822;DHT22;63353;48.702;8.884;2023-09-19T04:10:45;14.40;99.90
74822;DHT22;63353;48.702;8.884;2023-09-19T04:13:11;14.50;99.90
74822;DHT22;63353;48.702;8.884;2023-09-19T04:15:36;14.50;99.90
74822;DHT22;63353;48.702;8.884;2023-09-19T04:18:03;14.60;99.90
74822;DHT22;63353;48.702;8.884;2023-09-19T04:20:29;14.60;99.90
74822;DHT22;63353;48.702;8.884;2023-09-19T04:22:54;14.50;99.90
74822;DHT22;63353;48.702;8.884;2023-09-19T04:25:21;14.60;99.90
74822;DHT22;63353;48.702;8.884;2023-09-19T04:27:46;14.50;99.90
74822;DHT22;63353;48.702;8.884;2023-09-19T04:30:13;14.50;99.90
74822;DHT22;63353;48.702;8.884;2023-09-19T04:32:40;14.50;99.90
74822;DHT22;63353;48.702;8.884;2023-09-19T04:35:07;14.60;99.90
74822;DHT22;63353;48.702;8.884;2023-09-19T04:37:43;14.50;99.90
74822;DHT22;63353;48.702;8.884;2023-09-19T04:40:09;14.60;99.90
74822;DHT22;63353;48.702;8.884;2023-09-19T04:42:40;14.60;99.90
74822;DHT22;63353;48.702;8.884;2023-09-19T04:45:07;14.60;99.90
74822;DHT22;63353;48.702;8.884;2023-09-19T04:47:35;14.60;99.90
74822;DHT22;63353;48.702;8.884;2023-09-19T04:50:01;14.50;99.90
74822;DHT22;63353;48.702;8.884;2023-09-19T04:52:27;14.60;99.90
74822;DHT22;63353;48.702;8.884;2023-09-19T04:54:56;14.50;99.90
74822;DHT22;63353;48.702;8.884;2023-09-19T04:57:23;14.50;99.90
74822;DHT22;63353;48.702;8.884;2023-09-19T04:59:48;14.50;99.90
74822;DHT22;63353;48.702;8.884;2023-09-19T05:02:14;14.40;99.90
74822;DHT22;63353;48.702;8.884;2023-09-19T05:04:41;14.50;99.90
74822;DHT22;63353;48.702;8.884;2023-09-19T05:07:07;14.40;99.90
74822;DHT22;63353;48.702;8.884;2023-09-19T05:09:32;14.40;99.90
74822;DHT22;63353;48.702;8.884;2023-09-19T05:12:00;14.50;99.90
74822;DHT22;63353;48.702;8.884;2023-09-19T05:14:26;14.50;99.90
74822;DHT22;63353;48.702;8.884;2023-09-19T05:16:51;14.40;99.90
74822;DHT22;63353;48.702;8.884;2023-09-19T05:19:17;14.40;99.90
74822;DHT22;63353;48.702;8.884;2023-09-19T05:21:43;14.40;99.90
74822;DHT22;63353;48.702;8.884;2023-09-19T05:24:08;14.30;99.90
74822;DHT22;63353;48.702;8.884;2023-09-19T05:26:34;14.30;99.90
74822;DHT22;63353;48.702;8.884;2023-09-19T05:29:00;14.40;99.90
74822;DHT22;63353;48.702;8.884;2023-09-19T05:31:27;14.50;99.90
74822;DHT22;63353;48.702;8.884;2023-09-19T05:33:53;14.50;99.90
74822;DHT22;63353;48.702;8.884;2023-09-19T05:36:20;14.60;99.90
74822;DHT22;63353;48.702;8.884;2023-09-19T05:38:46;14.70;99.90
74822;DHT22;63353;48.702;8.884;2023-09-19T05:41:15;14.60;99.90
74822;DHT22;63353;48.702;8.884;2023-09-19T05:43:41;14.50;99.90
74822;DHT22;63353;48.702;8.884;2023-09-19T05:46:07;14.50;99.90
74822;DHT22;63353;48.702;8.884;2023-09-19T05:48:33;14.40;99.90
74822;DHT22;63353;48.702;8.884;2023-09-19T05:50:59;14.40;99.90
74822;DHT22;63353;48.702;8.884;2023-09-19T05:53:27;14.30;99.90
74822;DHT22;63353;48.702;8.884;2023-09-19T05:55:52;14.20;99.90
74822;DHT22;63353;48.702;8.884;2023-09-19T05:58:18;14.20;99.90
74822;DHT22;63353;48.702;8.884;2023-09-19T06:00:45;14.10;99.90
74822;DHT22;63353;48.702;8.884;2023-09-19T06:03:13;14.00;99.90
74822;DHT22;63353;48.702;8.884;2023-09-19T06:05:40;14.00;99.90
74822;DHT22;63353;48.702;8.884;2023-09-19T06:08:08;14.00;99.90
74822;DHT22;63353;48.702;8.884;2023-09-19T06:10:35;14.00;99.90
74822;DHT22;63353;48.702;8.884;2023-09-19T06:13:05;14.00;99.90
74822;DHT22;63353;48.702;8.884;2023-09-19T06:15:31;14.00;99.90
74822;DHT22;63353;48.702;8.884;2023-09-19T06:17:59;14.00;99.90
74822;DHT22;63353;48.702;8.884;2023-09-19T06:20:25;14.10;99.90
74822;DHT22;63353;48.702;8.884;2023-09-19T06:22:52;14.20;99.90
74822;DHT22;63353;48.702;8.884;2023-09-19T06:25:18;14.20;99.90
74822;DHT22;63353;48.702;8.884;2023-09-19T06:27:51;14.20;99.90
74822;DHT22;63353;48.702;8.884;2023-09-19T06:30:22;14.30;99.90
74822;DHT22;63353;48.702;8.884;2023-09-19T06:32:49;14.30;99.90
74822;DHT22;63353;48.702;8.884;2023-09-19T06:35:16;14.30;99.90
74822;DHT22;63353;48.702;8.884;2023-09-19T06:37:42;14.40;99.90
74822;DHT22;63353;48.702;8.884;2023-09-19T06:40:09;14.40;99.90
74822;DHT22;63353;48.702;8.884;2023-09-19T06:42:44;14.40;99.90
74822;DHT22;63353;48.702;8.884;2023-09-19T06:45:14;14.50;99.90
74822;DHT22;63353;48.702;8.884;2023-09-19T06:47:47;14.60;99.90
74822;DHT22;63353;48.702;8.884;2023-09-19T06:50:18;14.70;99.90
74822;DHT22;63353;48.702;8.884;2023-09-19T06:52:46;14.80;99.90
74822;DHT22;63353;48.702;8.884;2023-09-19T06:55:13;14.90;99.90
74822;DHT22;63353;48.702;8.884;2023-09-19T06:57:42;14.90;99.90
74822;DHT22;63353;48.702;8.884;2023-09-19T07:00:10;14.90;99.90
74822;DHT22;63353;48.702;8.884;2023-09-19T07:02:54;15.00;99.90
74822;DHT22;63353;48.702;8.884;2023-09-19T07:05:20;15.00;99.90
74822;DHT22;63353;48.702;8.884;2023-09-19T07:07:47;15.00;99.90
74822;DHT22;63353;48.702;8.884;2023-09-19T07:10:12;15.10;99.90
74822;DHT22;63353;48.702;8.884;2023-09-19T07:12:38;15.20;99.90
74822;DHT22;63353;48.702;8.884;2023-09-19T07:15:05;15.20;99.90
74822;DHT22;63353;48.702;8.884;2023-09-19T07:17:31;15.20;99.90
74822;DHT22;63353;48.702;8.884;2023-09-19T07:19:58;15.20;99.90
74822;DHT22;63353;48.702;8.884;2023-09-19T07:22:26;15.20;99.90
74822;DHT22;63353;48.702;8.884;2023-09-19T07:24:51;15.30;99.90
74822;DHT22;63353;48.702;8.884;2023-09-19T07:27:17;15.30;99.90
74822;DHT22;63353;48.702;8.884;2023-09-19T07:29:43;15.40;99.90
74822;DHT22;63353;48.702;8.884;2023-09-19T07:32:10;15.50;99.90
74822;DHT22;63353;48.702;8.884;2023-09-19T07:34:37;15.50;99.90
74822;DHT22;63353;48.702;8.884;2023-09-19T07:37:06;15.50;99.90
74822;DHT22;63353;48.702;8.884;2023-09-19T07:39:31;15.50;99.90
74822;DHT22;63353;48.702;8.884;2023-09-19T07:41:57;15.50;99.90
74822;DHT22;63353;48.702;8.884;2023-09-19T07:44:23;15.70;99.90
74822;DHT22;63353;48.702;8.884;2023-09-19T07:46:51;15.70;99.90
74822;DHT22;63353;48.702;8.884;2023-09-19T07:49:17;15.80;99.90
74822;DHT22;63353;48.702;8.884;2023-09-19T07:51:43;16.00;99.90
74822;DHT22;63353;48.702;8.884;2023-09-19T07:54:12;16.20;99.90
74822;DHT22;63353;48.702;8.884;2023-09-19T07:56:38;16.40;99.90
74822;DHT22;63353;48.702;8.884;2023-09-19T07:59:03;16.50;99.90
74822;DHT22;63353;48.702;8.884;2023-09-19T08:01:29;16.60;99.90
74822;DHT22;63353;48.702;8.884;2023-09-19T08:03:55;16.70;99.90
74822;DHT22;63353;48.702;8.884;2023-09-19T08:06:21;16.80;99.90
74822;DHT22;63353;48.702;8.884;2023-09-19T08:08:47;16.70;99.90
74822;DHT22;63353;48.702;8.884;2023-09-19T08:11:15;16.70;99.90
74822;DHT22;63353;48.702;8.884;2023-09-19T08:13:46;16.70;99.90
74822;DHT22;63353;48.702;8.884;2023-09-19T08:16:15;16.90;99.90
74822;DHT22;63353;48.702;8.884;2023-09-19T08:18:41;16.80;99.90
74822;DHT22;63353;48.702;8.884;2023-09-19T08:21:07;16.70;99.90
74822;DHT22;63353;48.702;8.884;2023-09-19T08:23:38;16.60;99.90
74822;DHT22;63353;48.702;8.884;2023-09-19T08:26:05;16.60;99.90
74822;DHT22;63353;48.702;8.884;2023-09-19T08:28:37;16.60;99.90
74822;DHT22;63353;48.702;8.884;2023-09-19T08:31:07;16.50;99.90
74822;DHT22;63353;48.702;8.884;2023-09-19T08:33:36;16.40;99.90
74822;DHT22;63353;48.702;8.884;2023-09-19T08:36:02;16.40;99.90
74822;DHT22;63353;48.702;8.884;2023-09-19T08:38:33;16.40;99.90
74822;DHT22;63353;48.702;8.884;2023-09-19T08:40:59;16.60;99.90
74822;DHT22;63353;48.702;8.884;2023-09-19T08:43:26;17.00;99.90
74822;DHT22;63353;48.702;8.884;2023-09-19T08:46:15;17.40;99.90
74822;DHT22;63353;48.702;8.884;2023-09-19T08:49:04;17.60;99.90
74822;DHT22;63353;48.702;8.884;2023-09-19T08:51:42;17.90;99.90
74822;DHT22;63353;48.702;8.884;2023-09-19T08:54:25;17.80;99.90
74822;DHT22;63353;48.702;8.884;2023-09-19T08:56:55;17.90;99.90
74822;DHT22;63353;48.702;8.884;2023-09-19T08:59:28;18.10;99.90
74822;DHT22;63353;48.702;8.884;2023-09-19T09:01:55;18.00;99.90
74822;DHT22;63353;48.702;8.884;2023-09-19T09:04:22;18.20;99.90
74822;DHT22;63353;48.702;8.884;2023-09-19T09:06:49;18.50;99.90
74822;DHT22;63353;48.702;8.884;2023-09-19T09:09:19;18.40;99.90
74822;DHT22;63353;48.702;8.884;2023-09-19T09:11:45;18.50;99.90
74822;DHT22;63353;48.702;8.884;2023-09-19T09:14:13;17.90;99.90
74822;DHT22;63353;48.702;8.884;2023-09-19T09:16:39;17.70;99.90
74822;DHT22;63353;48.702;8.884;2023-09-19T09:19:05;17.70;99.90
74822;DHT22;63353;48.702;8.884;2023-09-19T09:21:31;17.90;99.90
74822;DHT22;63353;48.702;8.884;2023-09-19T09:24:30;18.00;99.90
74822;DHT22;63353;48.702;8.884;2023-09-19T09:26:59;17.90;99.90
74822;DHT22;63353;48.702;8.884;2023-09-19T09:29:42;17.70;99.90
74822;DHT22;63353;48.702;8.884;2023-09-19T09:32:19;17.80;99.90
74822;DHT22;63353;48.702;8.884;2023-09-19T09:34:46;17.90;99.90
74822;DHT22;63353;48.702;8.884;2023-09-19T09:37:17;18.00;99.90
74822;DHT22;63353;48.702;8.884;2023-09-19T09:39:56;18.40;99.90
74822;DHT22;63353;48.702;8.884;2023-09-19T09:42:36;18.60;99.90
74822;DHT22;63353;48.702;8.884;2023-09-19T09:45:18;19.00;99.90
74822;DHT22;63353;48.702;8.884;2023-09-19T09:48:04;18.90;99.90
74822;DHT22;63353;48.702;8.884;2023-09-19T09:50:47;19.00;99.90
74822;DHT22;63353;48.702;8.884;2023-09-19T09:53:23;18.80;99.90
74822;DHT22;63353;48.702;8.884;2023-09-19T09:56:05;19.00;99.90
74822;DHT22;63353;48.702;8.884;2023-09-19T09:58:50;19.20;99.90
74822;DHT22;63353;48.702;8.884;2023-09-19T10:01:21;19.80;99.90
74822;DHT22;63353;48.702;8.884;2023-09-19T10:03:57;19.80;99.90
74822;DHT22;63353;48.702;8.884;2023-09-19T10:06:23;19.60;99.90
74822;DHT22;63353;48.702;8.884;2023-09-19T10:12:00;19.40;99.90
74822;DHT22;63353;48.702;8.884;2023-09-19T10:14:30;19.60;99.90
74822;DHT22;63353;48.702;8.884;2023-09-19T10:16:59;19.70;99.90
74822;DHT22;63353;48.702;8.884;2023-09-19T10:19:54;19.60;99.90
74822;DHT22;63353;48.702;8.884;2023-09-19T10:22:24;20.00;99.90
74822;DHT22;63353;48.702;8.884;2023-09-19T10:24:53;20.20;99.90
74822;DHT22;63353;48.702;8.884;2023-09-19T10:27:21;20.20;99.90
74822;DHT22;63353;48.702;8.884;2023-09-19T10:29:49;20.30;99.90
74822;DHT22;63353;48.702;8.884;2023-09-19T10:32:19;20.20;99.90
74822;DHT22;63353;48.702;8.884;2023-09-19T10:34:49;20.60;99.90
74822;DHT22;63353;48.702;8.884;2023-09-19T10:37:20;20.40;99.90
74822;DHT22;63353;48.702;8.884;2023-09-19T10:39:52;19.90;99.90
74822;DHT22;63353;48.702;8.884;2023-09-19T10:42:19;20.20;99.90
74822;DHT22;63353;48.702;8.884;2023-09-19T10:44:47;20.40;99.90
74822;DHT22;63353;48.702;8.884;2023-09-19T10:47:14;20.40;99.90
74822;DHT22;63353;48.702;8.884;2023-09-19T10:49:45;20.40;99.90
74822;DHT22;63353;48.702;8.884;2023-09-19T10:52:17;20.40;99.90
74822;DHT22;63353;48.702;8.884;2023-09-19T10:54:53;20.50;99.90
74822;DHT22;63353;48.702;8.884;2023-09-19T10:57:23;20.40;99.90
74822;DHT22;63353;48.702;8.884;2023-09-19T11:00:06;19.90;99.90
74822;DHT22;63353;48.702;8.884;2023-09-19T11:03:27;19.60;99.90
74822;DHT22;63353;48.702;8.884;2023-09-19T11:06:15;19.70;99.90
74822;DHT22;63353;48.702;8.884;2023-09-19T11:09:02;19.50;99.90
74822;DHT22;63353;48.702;8.884;2023-09-19T11:11:51;19.50;99.90
74822;DHT22;63353;48.702;8.884;2023-09-19T11:30:40;19.30;99.90
74822;DHT22;63353;48.702;8.884;2023-09-19T11:36:08;19.40;99.90
74822;DHT22;63353;48.702;8.884;2023-09-19T11:49:13;20.60;99.90
74822;DHT22;63353;48.702;8.884;2023-09-19T11:51:45;20.20;99.90
74822;DHT22;63353;48.702;8.884;2023-09-19T11:54:13;20.40;99.90
74822;DHT22;63353;48.702;8.884;2023-09-19T11:56:50;20.80;99.90
74822;DHT22;63353;48.702;8.884;2023-09-19T11:59:30;21.20;99.90
74822;DHT22;63353;48.702;8.884;2023-09-19T12:02:00;21.40;99.90
74822;DHT22;63353;48.702;8.884;2023-09-19T12:04:38;21.50;99.90
74822;DHT22;63353;48.702;8.884;2023-09-19T12:07:09;21.90;99.90
74822;DHT22;63353;48.702;8.884;2023-09-19T12:09:48;21.90;99.90
74822;DHT22;63353;48.702;8.884;2023-09-19T12:12:24;21.80;99.90
74822;DHT22;63353;48.702;8.884;2023-09-19T12:14:53;21.90;99.90
74822;DHT22;63353;48.702;8.884;2023-09-19T12:17:19;21.90;99.90
74822;DHT22;63353;48.702;8.884;2023-09-19T12:19:52;21.60;99.90
74822;DHT22;63353;48.702;8.884;2023-09-19T12:22:18;21.60;99.90
74822;DHT22;63353;48.702;8.884;2023-09-19T12:24:46;21.70;99.90
74822;DHT22;63353;48.702;8.884;2023-09-19T12:27:13;21.80;99.90
74822;DHT22;63353;48.702;8.884;2023-09-19T12:29:46;22.10;99.90
74822;DHT22;63353;48.702;8.884;2023-09-19T12:32:14;22.50;99.90
74822;DHT22;63353;48.702;8.884;2023-09-19T12:34:42;22.40;99.90
74822;DHT22;63353;48.702;8.884;2023-09-19T12:37:15;22.20;99.90
74822;DHT22;63353;48.702;8.884;2023-09-19T12:39:48;22.50;99.90
74822;DHT22;63353;48.702;8.884;2023-09-19T12:42:16;22.00;99.90
74822;DHT22;63353;48.702;8.884;2023-09-19T12:44:46;22.10;99.90
74822;DHT22;63353;48.702;8.884;2023-09-19T12:47:17;22.10;99.90
74822;DHT22;63353;48.702;8.884;2023-09-19T12:52:40;22.50;99.90
74822;DHT22;63353;48.702;8.884;2023-09-19T12:55:06;22.70;99.90
74822;DHT22;63353;48.702;8.884;2023-09-19T12:57:35;22.70;99.90
74822;DHT22;63353;48.702;8.884;2023-09-19T13:00:02;23.10;99.90
74822;DHT22;63353;48.702;8.884;2023-09-19T13:02:31;23.00;99.90
74822;DHT22;63353;48.702;8.884;2023-09-19T13:04:58;23.30;99.90
74822;DHT22;63353;48.702;8.884;2023-09-19T13:07:44;23.90;99.90
74822;DHT22;63353;48.702;8.884;2023-09-19T13:10:14;23.60;99.90
74822;DHT22;63353;48.702;8.884;2023-09-19T13:12:42;23.50;99.90
74822;DHT22;63353;48.702;8.884;2023-09-19T13:15:14;23.70;99.90
74822;DHT22;63353;48.702;8.884;2023-09-19T13:17:50;24.10;99.90
74822;DHT22;63353;48.702;8.884;2023-09-19T13:20:23;24.40;99.90
74822;DHT22;63353;48.702;8.884;2023-09-19T13:22:57;24.10;99.90
74822;DHT22;63353;48.702;8.884;2023-09-19T13:25:34;25.20;99.90
74822;DHT22;63353;48.702;8.884;2023-09-19T13:28:00;25.70;99.90
74822;DHT22;63353;48.702;8.884;2023-09-19T13:30:29;25.60;99.90
74822;DHT22;63353;48.702;8.884;2023-09-19T13:33:07;26.10;99.90
74822;DHT22;63353;48.702;8.884;2023-09-19T13:35:35;26.50;99.90
74822;DHT22;63353;48.702;8.884;2023-09-19T13:38:02;26.60;99.90
74822;DHT22;63353;48.702;8.884;2023-09-19T13:40:28;25.70;99.90
74822;DHT22;63353;48.702;8.884;2023-09-19T13:42:56;25.70;99.90
74822;DHT22;63353;48.702;8.884;2023-09-19T13:45:22;25.80;99.90
74822;DHT22;63353;48.702;8.884;2023-09-19T13:47:50;25.00;99.90
74822;DHT22;63353;48.702;8.884;2023-09-19T13:50:16;24.90;99.90
74822;DHT22;63353;48.702;8.884;2023-09-19T13:52:44;25.70;99.90
74822;DHT22;63353;48.702;8.884;2023-09-19T13:55:09;25.60;99.90
74822;DHT22;63353;48.702;8.884;2023-09-19T13:57:35;24.80;99.90
74822;DHT22;63353;48.702;8.884;2023-09-19T14:00:01;23.60;99.90
74822;DHT22;63353;48.702;8.884;2023-09-19T14:02:26;22.70;99.90
74822;DHT22;63353;48.702;8.884;2023-09-19T14:04:52;22.20;99.90
74822;DHT22;63353;48.702;8.884;2023-09-19T14:07:18;22.10;99.90
74822;DHT22;63353;48.702;8.884;2023-09-19T14:09:45;22.10;99.90
74822;DHT22;63353;48.702;8.884;2023-09-19T14:12:11;23.20;99.90
74822;DHT22;63353;48.702;8.884;2023-09-19T14:14:37;23.70;99.90
74822;DHT22;63353;48.702;8.884;2023-09-19T14:17:03;24.30;99.90
74822;DHT22;63353;48.702;8.884;2023-09-19T14:19:29;25.10;99.90
74822;DHT22;63353;48.702;8.884;2023-09-19T14:21:55;26.10;99.90
74822;DHT22;63353;48.702;8.884;2023-09-19T14:24:21;26.60;99.90
74822;DHT22;63353;48.702;8.884;2023-09-19T14:26:47;26.80;99.90
74822;DHT22;63353;48.702;8.884;2023-09-19T14:29:13;26.00;99.90
74822;DHT22;63353;48.702;8.884;2023-09-19T14:31:39;25.00;99.90
74822;DHT22;63353;48.702;8.884;2023-09-19T14:34:06;24.70;99.90
74822;DHT22;63353;48.702;8.884;2023-09-19T14:36:31;24.30;99.90
74822;DHT22;63353;48.702;8.884;2023-09-19T14:38:58;24.40;99.90
74822;DHT22;63353;48.702;8.884;2023-09-19T14:41:24;24.40;99.90
74822;DHT22;63353;48.702;8.884;2023-09-19T14:43:54;24.80;99.90
74822;DHT22;63353;48.702;8.884;2023-09-19T14:46:21;24.20;99.90
74822;DHT22;63353;48.702;8.884;2023-09-19T14:48:46;24.50;99.90
74822;DHT22;63353;48.702;8.884;2023-09-19T14:51:16;24.00;99.90
74822;DHT22;63353;48.702;8.884;2023-09-19T14:53:42;23.70;99.90
74822;DHT22;63353;48.702;8.884;2023-09-19T14:56:09;23.90;99.90
74822;DHT22;63353;48.702;8.884;2023-09-19T14:58:35;24.20;99.90
74822;DHT22;63353;48.702;8.884;2023-09-19T15:01:03;23.70;99.90
74822;DHT22;63353;48.702;8.884;2023-09-19T15:03:29;23.30;99.90
74822;DHT22;63353;48.702;8.884;2023-09-19T15:06:03;23.50;99.90
74822;DHT22;63353;48.702;8.884;2023-09-19T15:08:32;24.00;99.90
74822;DHT22;63353;48.702;8.884;2023-09-19T15:11:00;24.50;99.90
74822;DHT22;63353;48.702;8.884;2023-09-19T15:13:30;24.40;99.90
74822;DHT22;63353;48.702;8.884;2023-09-19T15:16:13;24.50;99.90
74822;DHT22;63353;48.702;8.884;2023-09-19T15:18:45;24.90;99.90
74822;DHT22;63353;48.702;8.884;2023-09-19T15:21:13;24.60;99.90
74822;DHT22;63353;48.702;8.884;2023-09-19T15:23:41;24.30;99.90
74822;DHT22;63353;48.702;8.884;2023-09-19T15:26:12;24.40;99.90
74822;DHT22;63353;48.702;8.884;2023-09-19T15:28:38;24.60;99.90
74822;DHT22;63353;48.702;8.884;2023-09-19T15:31:06;24.80;99.90
74822;DHT22;63353;48.702;8.884;2023-09-19T15:33:33;25.10;99.90
74822;DHT22;63353;48.702;8.884;2023-09-19T15:38:29;25.50;99.90
74822;DHT22;63353;48.702;8.884;2023-09-19T15:40:55;25.30;99.90
74822;DHT22;63353;48.702;8.884;2023-09-19T15:43:23;25.00;99.90
74822;DHT22;63353;48.702;8.884;2023-09-19T15:45:49;25.00;99.90
74822;DHT22;63353;48.702;8.884;2023-09-19T15:48:15;24.80;99.90
74822;DHT22;63353;48.702;8.884;2023-09-19T15:50:42;25.00;99.90
74822;DHT22;63353;48.702;8.884;2023-09-19T15:53:09;25.70;99.90
74822;DHT22;63353;48.702;8.884;2023-09-19T15:55:39;26.00;99.90
74822;DHT22;63353;48.702;8.884;2023-09-19T15:58:05;26.10;99.90
74822;DHT22;63353;48.702;8.884;2023-09-19T16:00:35;26.60;99.90
74822;DHT22;63353;48.702;8.884;2023-09-19T16:03:05;27.50;99.90
74822;DHT22;63353;48.702;8.884;2023-09-19T16:05:37;26.60;99.90
74822;DHT22;63353;48.702;8.884;2023-09-19T16:08:08;26.50;99.90
74822;DHT22;63353;48.702;8.884;2023-09-19T16:10:37;25.70;99.90
74822;DHT22;63353;48.702;8.884;2023-09-19T16:13:03;25.80;99.90
74822;DHT22;63353;48.702;8.884;2023-09-19T16:15:29;25.80;99.90
74822;DHT22;63353;48.702;8.884;2023-09-19T16:17:55;25.50;99.90
74822;DHT22;63353;48.702;8.884;2023-09-19T16:20:22;24.70;99.90
74822;DHT22;63353;48.702;8.884;2023-09-19T16:22:49;24.70;99.90
74822;DHT22;63353;48.702;8.884;2023-09-19T16:25:14;24.90;99.90
74822;DHT22;63353;48.702;8.884;2023-09-19T16:27:40;25.40;99.90
74822;DHT22;63353;48.702;8.884;2023-09-19T16:30:07;25.80;99.90
74822;DHT22;63353;48.702;8.884;2023-09-19T16:32:35;26.10;99.90
74822;DHT22;63353;48.702;8.884;2023-09-19T16:35:02;25.70;99.90
74822;DHT22;63353;48.702;8.884;2023-09-19T16:37:28;25.30;99.90